sensor_id;sensor_type;location;lat;lon;timestamp;P1;durP1;ratioP1;P2;durP2;ratioP2
14098;SDS011;7126;48.458;7.930;2023-03-03T00:00:24;2.43;;;2.30;;
14098;SDS011;7126;48.458;7.930;2023-03-03T00:02:50;2.53;;;2.43;;
14098;SDS011;7126;48.458;7.930;2023-03-03T00:05:16;5.13;;;1.33;;
14098;SDS011;7126;48.458;7.930;2023-03-03T00:07:45;1.87;;;1.77;;
14098;SDS011;7126;48.458;7.930;2023-03-03T00:10:12;1.53;;;1.43;;
14098;SDS011;7126;48.458;7.930;2023-03-03T00:12:45;2.43;;;1.40;;
14098;SDS011;7126;48.458;7.930;2023-03-03T00:15:16;3.97;;;2.93;;
14098;SDS011;7126;48.458;7.930;2023-03-03T00:17:46;1.93;;;1.57;;
14098;SDS011;7126;48.458;7.930;2023-03-03T00:20:26;1.97;;;1.87;;
14098;SDS011;7126;48.458;7.930;2023-03-03T00:23:16;3.70;;;1.67;;
14098;SDS011;7126;48.458;7.930;2023-03-03T00:25:49;3.23;;;2.60;;
14098;SDS011;7126;48.458;7.930;2023-03-03T00:30:47;1.57;;;1.10;;
14098;SDS011;7126;48.458;7.930;2023-03-03T00:33:22;2.10;;;2.00;;
14098;SDS011;7126;48.458;7.930;2023-03-03T00:36:09;1.27;;;1.27;;
14098;SDS011;7126;48.458;7.930;2023-03-03T00:38:39;1.00;;;0.97;;
14098;SDS011;7126;48.458;7.930;2023-03-03T00:44:01;1.80;;;1.73;;
14098;SDS011;7126;48.458;7.930;2023-03-03T00:46:52;1.43;;;1.43;;
14098;SDS011;7126;48.458;7.930;2023-03-03T00:49:21;2.60;;;2.40;;
14098;SDS011;7126;48.458;7.930;2023-03-03T00:51:50;1.07;;;1.07;;
14098;SDS011;7126;48.458;7.930;2023-03-03T00:54:17;1.57;;;1.47;;
14098;SDS011;7126;48.458;7.930;2023-03-03T00:56:43;2.03;;;1.93;;
14098;SDS011;7126;48.458;7.930;2023-03-03T00:59:08;1.17;;;1.17;;
14098;SDS011;7126;48.458;7.930;2023-03-03T01:01:34;1.80;;;1.73;;
14098;SDS011;7126;48.458;7.930;2023-03-03T01:03:59;1.73;;;1.63;;
14098;SDS011;7126;48.458;7.930;2023-03-03T01:06:25;2.13;;;2.03;;
14098;SDS011;7126;48.458;7.930;2023-03-03T01:08:50;1.27;;;1.27;;
14098;SDS011;7126;48.458;7.930;2023-03-03T01:11:19;2.43;;;2.23;;
14098;SDS011;7126;48.458;7.930;2023-03-03T01:13:47;1.97;;;1.87;;
14098;SDS011;7126;48.458;7.930;2023-03-03T01:16:15;2.10;;;1.73;;
14098;SDS011;7126;48.458;7.930;2023-03-03T01:18:41;0.93;;;0.73;;
14098;SDS011;7126;48.458;7.930;2023-03-03T01:21:07;1.40;;;1.33;;
14098;SDS011;7126;48.458;7.930;2023-03-03T01:23:33;0.90;;;0.90;;
14098;SDS011;7126;48.458;7.930;2023-03-03T01:25:59;2.43;;;2.33;;
14098;SDS011;7126;48.458;7.930;2023-03-03T01:28:25;1.90;;;1.80;;
14098;SDS011;7126;48.458;7.930;2023-03-03T01:30:51;1.73;;;1.63;;
14098;SDS011;7126;48.458;7.930;2023-03-03T01:33:17;1.50;;;1.40;;
14098;SDS011;7126;48.458;7.930;2023-03-03T01:35:44;2.03;;;1.87;;
14098;SDS011;7126;48.458;7.930;2023-03-03T01:38:11;2.00;;;1.90;;
14098;SDS011;7126;48.458;7.930;2023-03-03T01:40:37;1.50;;;1.07;;
14098;SDS011;7126;48.458;7.930;2023-03-03T01:43:02;1.60;;;1.53;;
14098;SDS011;7126;48.458;7.930;2023-03-03T01:45:40;2.10;;;1.70;;
14098;SDS011;7126;48.458;7.930;2023-03-03T01:48:35;3.10;;;1.90;;
14098;SDS011;7126;48.458;7.930;2023-03-03T01:51:08;2.00;;;1.80;;
14098;SDS011;7126;48.458;7.930;2023-03-03T01:53:49;1.40;;;1.00;;
14098;SDS011;7126;48.458;7.930;2023-03-03T01:56:18;1.43;;;1.30;;
14098;SDS011;7126;48.458;7.930;2023-03-03T01:58:44;4.23;;;1.93;;
14098;SDS011;7126;48.458;7.930;2023-03-03T02:01:15;1.30;;;1.30;;
14098;SDS011;7126;48.458;7.930;2023-03-03T02:03:44;1.53;;;1.43;;
14098;SDS011;7126;48.458;7.930;2023-03-03T02:06:13;0.93;;;0.93;;
14098;SDS011;7126;48.458;7.930;2023-03-03T02:11:15;2.83;;;1.77;;
14098;SDS011;7126;48.458;7.930;2023-03-03T02:13:40;1.17;;;1.17;;
14098;SDS011;7126;48.458;7.930;2023-03-03T02:16:06;1.13;;;1.13;;
14098;SDS011;7126;48.458;7.930;2023-03-03T02:18:32;1.10;;;1.10;;
14098;SDS011;7126;48.458;7.930;2023-03-03T02:21:09;2.03;;;1.93;;
14098;SDS011;7126;48.458;7.930;2023-03-03T02:26:20;1.17;;;1.17;;
14098;SDS011;7126;48.458;7.930;2023-03-03T02:28:48;4.73;;;1.70;;
14098;SDS011;7126;48.458;7.930;2023-03-03T02:31:16;2.40;;;2.30;;
14098;SDS011;7126;48.458;7.930;2023-03-03T02:33:45;3.80;;;1.07;;
14098;SDS011;7126;48.458;7.930;2023-03-03T02:36:13;1.63;;;1.57;;
14098;SDS011;7126;48.458;7.930;2023-03-03T02:38:42;1.47;;;1.17;;
14098;SDS011;7126;48.458;7.930;2023-03-03T02:44:09;1.90;;;1.80;;
14098;SDS011;7126;48.458;7.930;2023-03-03T02:46:38;1.47;;;1.30;;
14098;SDS011;7126;48.458;7.930;2023-03-03T02:49:06;0.90;;;0.90;;
14098;SDS011;7126;48.458;7.930;2023-03-03T02:51:33;1.10;;;1.10;;
14098;SDS011;7126;48.458;7.930;2023-03-03T02:53:58;1.20;;;1.20;;
14098;SDS011;7126;48.458;7.930;2023-03-03T02:56:24;0.97;;;0.97;;
14098;SDS011;7126;48.458;7.930;2023-03-03T02:58:50;8.13;;;2.70;;
14098;SDS011;7126;48.458;7.930;2023-03-03T03:01:16;0.73;;;0.70;;
14098;SDS011;7126;48.458;7.930;2023-03-03T03:03:42;2.63;;;2.43;;
14098;SDS011;7126;48.458;7.930;2023-03-03T03:06:07;1.77;;;1.67;;
14098;SDS011;7126;48.458;7.930;2023-03-03T03:08:33;3.83;;;1.27;;
14098;SDS011;7126;48.458;7.930;2023-03-03T03:10:59;1.03;;;1.03;;
14098;SDS011;7126;48.458;7.930;2023-03-03T03:13:24;0.63;;;0.63;;
14098;SDS011;7126;48.458;7.930;2023-03-03T03:15:50;1.00;;;1.00;;
14098;SDS011;7126;48.458;7.930;2023-03-03T03:18:16;1.73;;;1.63;;
14098;SDS011;7126;48.458;7.930;2023-03-03T03:20:42;1.23;;;1.23;;
14098;SDS011;7126;48.458;7.930;2023-03-03T03:23:08;1.73;;;1.60;;
14098;SDS011;7126;48.458;7.930;2023-03-03T03:25:34;0.50;;;0.50;;
14098;SDS011;7126;48.458;7.930;2023-03-03T03:28:01;1.33;;;1.33;;
14098;SDS011;7126;48.458;7.930;2023-03-03T03:30:27;1.80;;;1.70;;
14098;SDS011;7126;48.458;7.930;2023-03-03T03:32:53;2.13;;;1.83;;
14098;SDS011;7126;48.458;7.930;2023-03-03T03:35:18;0.70;;;0.70;;
14098;SDS011;7126;48.458;7.930;2023-03-03T03:37:44;1.67;;;1.63;;
14098;SDS011;7126;48.458;7.930;2023-03-03T03:40:10;5.27;;;1.37;;
14098;SDS011;7126;48.458;7.930;2023-03-03T03:42:36;2.33;;;2.23;;
14098;SDS011;7126;48.458;7.930;2023-03-03T03:45:04;1.03;;;1.03;;
14098;SDS011;7126;48.458;7.930;2023-03-03T03:47:30;1.13;;;0.80;;
14098;SDS011;7126;48.458;7.930;2023-03-03T03:49:56;1.63;;;1.53;;
14098;SDS011;7126;48.458;7.930;2023-03-03T03:52:22;1.57;;;1.00;;
14098;SDS011;7126;48.458;7.930;2023-03-03T03:54:47;1.20;;;1.20;;
14098;SDS011;7126;48.458;7.930;2023-03-03T03:57:13;2.43;;;2.23;;
14098;SDS011;7126;48.458;7.930;2023-03-03T03:59:38;1.73;;;1.73;;
14098;SDS011;7126;48.458;7.930;2023-03-03T04:02:04;1.20;;;1.20;;
14098;SDS011;7126;48.458;7.930;2023-03-03T04:04:29;2.07;;;0.90;;
14098;SDS011;7126;48.458;7.930;2023-03-03T04:06:55;2.73;;;1.07;;
14098;SDS011;7126;48.458;7.930;2023-03-03T04:09:20;1.70;;;1.50;;
14098;SDS011;7126;48.458;7.930;2023-03-03T04:11:46;1.50;;;1.50;;
14098;SDS011;7126;48.458;7.930;2023-03-03T04:14:11;1.57;;;1.13;;
14098;SDS011;7126;48.458;7.930;2023-03-03T04:16:37;2.43;;;2.23;;
14098;SDS011;7126;48.458;7.930;2023-03-03T04:19:02;0.80;;;0.80;;
14098;SDS011;7126;48.458;7.930;2023-03-03T04:21:28;2.00;;;1.90;;
14098;SDS011;7126;48.458;7.930;2023-03-03T04:23:54;1.23;;;0.93;;
14098;SDS011;7126;48.458;7.930;2023-03-03T04:26:19;1.57;;;1.57;;
14098;SDS011;7126;48.458;7.930;2023-03-03T04:28:45;1.27;;;1.23;;
14098;SDS011;7126;48.458;7.930;2023-03-03T04:31:11;1.93;;;1.83;;
14098;SDS011;7126;48.458;7.930;2023-03-03T04:33:36;3.90;;;1.73;;
14098;SDS011;7126;48.458;7.930;2023-03-03T04:36:02;0.57;;;0.57;;
14098;SDS011;7126;48.458;7.930;2023-03-03T04:38:29;1.33;;;1.33;;
14098;SDS011;7126;48.458;7.930;2023-03-03T04:40:55;1.50;;;1.40;;
14098;SDS011;7126;48.458;7.930;2023-03-03T04:43:21;0.83;;;0.83;;
14098;SDS011;7126;48.458;7.930;2023-03-03T04:45:47;2.10;;;2.00;;
14098;SDS011;7126;48.458;7.930;2023-03-03T04:48:12;2.03;;;1.87;;
14098;SDS011;7126;48.458;7.930;2023-03-03T04:50:38;2.97;;;2.77;;
14098;SDS011;7126;48.458;7.930;2023-03-03T04:53:03;1.73;;;1.73;;
14098;SDS011;7126;48.458;7.930;2023-03-03T04:55:29;1.27;;;1.27;;
14098;SDS011;7126;48.458;7.930;2023-03-03T04:57:55;2.20;;;2.00;;
14098;SDS011;7126;48.458;7.930;2023-03-03T05:00:20;2.87;;;1.60;;
14098;SDS011;7126;48.458;7.930;2023-03-03T05:02:46;1.93;;;1.83;;
14098;SDS011;7126;48.458;7.930;2023-03-03T05:05:12;2.33;;;2.23;;
14098;SDS011;7126;48.458;7.930;2023-03-03T05:07:38;2.07;;;1.97;;
14098;SDS011;7126;48.458;7.930;2023-03-03T05:10:05;1.17;;;1.17;;
14098;SDS011;7126;48.458;7.930;2023-03-03T05:12:32;1.37;;;1.33;;
14098;SDS011;7126;48.458;7.930;2023-03-03T05:14:57;1.13;;;1.13;;
14098;SDS011;7126;48.458;7.930;2023-03-03T05:17:23;1.50;;;1.50;;
14098;SDS011;7126;48.458;7.930;2023-03-03T05:19:48;5.63;;;2.33;;
14098;SDS011;7126;48.458;7.930;2023-03-03T05:22:14;1.20;;;1.20;;
14098;SDS011;7126;48.458;7.930;2023-03-03T05:24:39;2.53;;;1.13;;
14098;SDS011;7126;48.458;7.930;2023-03-03T05:27:07;1.73;;;1.73;;
14098;SDS011;7126;48.458;7.930;2023-03-03T05:29:33;1.00;;;1.00;;
14098;SDS011;7126;48.458;7.930;2023-03-03T05:31:58;1.73;;;1.63;;
14098;SDS011;7126;48.458;7.930;2023-03-03T05:34:24;2.33;;;2.07;;
14098;SDS011;7126;48.458;7.930;2023-03-03T05:36:50;1.40;;;1.30;;
14098;SDS011;7126;48.458;7.930;2023-03-03T05:39:16;2.93;;;2.73;;
14098;SDS011;7126;48.458;7.930;2023-03-03T05:41:41;0.87;;;0.87;;
14098;SDS011;7126;48.458;7.930;2023-03-03T05:44:07;1.50;;;1.40;;
14098;SDS011;7126;48.458;7.930;2023-03-03T05:46:33;3.03;;;2.07;;
14098;SDS011;7126;48.458;7.930;2023-03-03T05:48:59;2.10;;;1.10;;
14098;SDS011;7126;48.458;7.930;2023-03-03T05:51:25;0.80;;;0.80;;
14098;SDS011;7126;48.458;7.930;2023-03-03T05:53:51;0.80;;;0.80;;
14098;SDS011;7126;48.458;7.930;2023-03-03T05:56:16;1.87;;;1.77;;
14098;SDS011;7126;48.458;7.930;2023-03-03T05:58:42;2.10;;;1.10;;
14098;SDS011;7126;48.458;7.930;2023-03-03T06:01:08;1.47;;;1.23;;
14098;SDS011;7126;48.458;7.930;2023-03-03T06:03:33;2.10;;;1.93;;
14098;SDS011;7126;48.458;7.930;2023-03-03T06:05:59;2.17;;;2.07;;
14098;SDS011;7126;48.458;7.930;2023-03-03T06:08:24;0.90;;;0.90;;
14098;SDS011;7126;48.458;7.930;2023-03-03T06:10:50;1.10;;;1.10;;
14098;SDS011;7126;48.458;7.930;2023-03-03T06:13:16;3.17;;;1.93;;
14098;SDS011;7126;48.458;7.930;2023-03-03T06:15:41;0.83;;;0.83;;
14098;SDS011;7126;48.458;7.930;2023-03-03T06:18:07;2.73;;;2.53;;
14098;SDS011;7126;48.458;7.930;2023-03-03T06:20:32;2.53;;;1.07;;
14098;SDS011;7126;48.458;7.930;2023-03-03T06:22:59;0.97;;;0.97;;
14098;SDS011;7126;48.458;7.930;2023-03-03T06:25:25;2.27;;;2.10;;
14098;SDS011;7126;48.458;7.930;2023-03-03T06:27:51;6.63;;;2.40;;
14098;SDS011;7126;48.458;7.930;2023-03-03T06:30:16;1.50;;;1.40;;
14098;SDS011;7126;48.458;7.930;2023-03-03T06:32:43;1.90;;;1.80;;
14098;SDS011;7126;48.458;7.930;2023-03-03T06:35:08;1.80;;;1.70;;
14098;SDS011;7126;48.458;7.930;2023-03-03T06:37:34;1.67;;;1.57;;
14098;SDS011;7126;48.458;7.930;2023-03-03T06:39:59;1.93;;;1.70;;
14098;SDS011;7126;48.458;7.930;2023-03-03T06:42:25;2.87;;;2.60;;
14098;SDS011;7126;48.458;7.930;2023-03-03T06:44:51;1.67;;;1.17;;
14098;SDS011;7126;48.458;7.930;2023-03-03T06:47:16;1.37;;;0.97;;
14098;SDS011;7126;48.458;7.930;2023-03-03T06:49:42;2.27;;;2.13;;
14098;SDS011;7126;48.458;7.930;2023-03-03T06:52:11;1.63;;;1.53;;
14098;SDS011;7126;48.458;7.930;2023-03-03T06:54:38;1.23;;;1.20;;
14098;SDS011;7126;48.458;7.930;2023-03-03T06:57:17;1.53;;;1.43;;
14098;SDS011;7126;48.458;7.930;2023-03-03T06:59:49;1.67;;;1.57;;
14098;SDS011;7126;48.458;7.930;2023-03-03T07:02:17;0.60;;;0.60;;
14098;SDS011;7126;48.458;7.930;2023-03-03T07:04:44;3.30;;;3.10;;
14098;SDS011;7126;48.458;7.930;2023-03-03T07:07:29;2.33;;;2.03;;
14098;SDS011;7126;48.458;7.930;2023-03-03T07:09:55;3.23;;;1.57;;
14098;SDS011;7126;48.458;7.930;2023-03-03T07:12:25;2.00;;;1.90;;
14098;SDS011;7126;48.458;7.930;2023-03-03T07:15:14;1.73;;;1.27;;
14098;SDS011;7126;48.458;7.930;2023-03-03T07:17:58;1.63;;;1.63;;
14098;SDS011;7126;48.458;7.930;2023-03-03T07:20:37;1.87;;;1.43;;
14098;SDS011;7126;48.458;7.930;2023-03-03T07:23:46;1.77;;;1.67;;
14098;SDS011;7126;48.458;7.930;2023-03-03T07:25:57;2.50;;;1.93;;
14098;SDS011;7126;48.458;7.930;2023-03-03T07:28:24;2.03;;;1.93;;
14098;SDS011;7126;48.458;7.930;2023-03-03T07:30:54;1.77;;;1.57;;
14098;SDS011;7126;48.458;7.930;2023-03-03T07:35:53;0.90;;;0.90;;
14098;SDS011;7126;48.458;7.930;2023-03-03T07:38:36;1.10;;;0.90;;
14098;SDS011;7126;48.458;7.930;2023-03-03T07:41:13;1.53;;;1.43;;
14098;SDS011;7126;48.458;7.930;2023-03-03T07:43:51;1.80;;;1.70;;
14098;SDS011;7126;48.458;7.930;2023-03-03T07:49:40;1.53;;;1.50;;
14098;SDS011;7126;48.458;7.930;2023-03-03T07:52:01;1.67;;;1.67;;
14098;SDS011;7126;48.458;7.930;2023-03-03T07:54:41;2.30;;;1.90;;
14098;SDS011;7126;48.458;7.930;2023-03-03T08:02:57;0.83;;;0.83;;
14098;SDS011;7126;48.458;7.930;2023-03-03T08:05:28;2.17;;;1.97;;
14098;SDS011;7126;48.458;7.930;2023-03-03T08:13:20;1.70;;;1.60;;
14098;SDS011;7126;48.458;7.930;2023-03-03T08:15:48;1.70;;;1.60;;
14098;SDS011;7126;48.458;7.930;2023-03-03T08:18:39;2.40;;;2.30;;
14098;SDS011;7126;48.458;7.930;2023-03-03T08:21:08;2.40;;;2.27;;
14098;SDS011;7126;48.458;7.930;2023-03-03T08:23:37;0.98;;;0.98;;
14098;SDS011;7126;48.458;7.930;2023-03-03T08:26:02;2.50;;;2.40;;
14098;SDS011;7126;48.458;7.930;2023-03-03T08:28:28;2.00;;;1.23;;
14098;SDS011;7126;48.458;7.930;2023-03-03T08:30:54;1.50;;;1.40;;
14098;SDS011;7126;48.458;7.930;2023-03-03T08:33:20;3.28;;;3.00;;
14098;SDS011;7126;48.458;7.930;2023-03-03T08:35:45;1.93;;;1.83;;
14098;SDS011;7126;48.458;7.930;2023-03-03T08:38:12;2.97;;;2.60;;
14098;SDS011;7126;48.458;7.930;2023-03-03T08:40:39;1.97;;;1.87;;
14098;SDS011;7126;48.458;7.930;2023-03-03T08:43:05;1.83;;;1.77;;
14098;SDS011;7126;48.458;7.930;2023-03-03T08:45:31;2.65;;;2.45;;
14098;SDS011;7126;48.458;7.930;2023-03-03T08:47:57;2.22;;;2.13;;
14098;SDS011;7126;48.458;7.930;2023-03-03T08:50:24;3.95;;;2.50;;
14098;SDS011;7126;48.458;7.930;2023-03-03T08:52:50;2.55;;;2.35;;
14098;SDS011;7126;48.458;7.930;2023-03-03T08:55:16;2.38;;;1.92;;
14098;SDS011;7126;48.458;7.930;2023-03-03T08:57:42;4.97;;;2.28;;
14098;SDS011;7126;48.458;7.930;2023-03-03T09:00:09;2.95;;;2.67;;
14098;SDS011;7126;48.458;7.930;2023-03-03T09:02:36;3.15;;;2.65;;
14098;SDS011;7126;48.458;7.930;2023-03-03T09:05:03;1.55;;;1.52;;
14098;SDS011;7126;48.458;7.930;2023-03-03T09:07:29;5.15;;;2.70;;
14098;SDS011;7126;48.458;7.930;2023-03-03T09:09:54;1.67;;;1.58;;
14098;SDS011;7126;48.458;7.930;2023-03-03T09:12:21;2.63;;;2.53;;
14098;SDS011;7126;48.458;7.930;2023-03-03T09:14:57;3.50;;;2.88;;
14098;SDS011;7126;48.458;7.930;2023-03-03T09:17:33;1.70;;;1.63;;
14098;SDS011;7126;48.458;7.930;2023-03-03T09:21:01;1.88;;;1.67;;
14098;SDS011;7126;48.458;7.930;2023-03-03T09:23:24;3.05;;;2.83;;
14098;SDS011;7126;48.458;7.930;2023-03-03T09:25:52;2.13;;;2.03;;
14098;SDS011;7126;48.458;7.930;2023-03-03T09:28:27;4.07;;;3.13;;
14098;SDS011;7126;48.458;7.930;2023-03-03T09:30:58;2.38;;;2.28;;
14098;SDS011;7126;48.458;7.930;2023-03-03T09:33:30;2.47;;;2.38;;
14098;SDS011;7126;48.458;7.930;2023-03-03T09:36:18;3.15;;;2.85;;
14098;SDS011;7126;48.458;7.930;2023-03-03T09:38:48;3.53;;;3.22;;
14098;SDS011;7126;48.458;7.930;2023-03-03T10:06:37;3.92;;;3.72;;
14098;SDS011;7126;48.458;7.930;2023-03-03T10:12:14;4.93;;;3.67;;
14098;SDS011;7126;48.458;7.930;2023-03-03T10:17:49;4.88;;;2.67;;
14098;SDS011;7126;48.458;7.930;2023-03-03T10:20:37;2.20;;;2.10;;
14098;SDS011;7126;48.458;7.930;2023-03-03T10:28:32;3.90;;;3.08;;
14098;SDS011;7126;48.458;7.930;2023-03-03T10:31:27;3.60;;;2.88;;
14098;SDS011;7126;48.458;7.930;2023-03-03T10:45:12;4.65;;;4.25;;
14098;SDS011;7126;48.458;7.930;2023-03-03T10:47:57;3.53;;;3.22;;
14098;SDS011;7126;48.458;7.930;2023-03-03T10:59:40;2.83;;;2.65;;
14098;SDS011;7126;48.458;7.930;2023-03-03T11:02:24;4.03;;;3.72;;
14098;SDS011;7126;48.458;7.930;2023-03-03T11:13:07;2.83;;;2.58;;
14098;SDS011;7126;48.458;7.930;2023-03-03T11:18:27;6.00;;;3.65;;
14098;SDS011;7126;48.458;7.930;2023-03-03T11:26:28;4.30;;;3.65;;
14098;SDS011;7126;48.458;7.930;2023-03-03T11:34:47;4.35;;;4.00;;
14098;SDS011;7126;48.458;7.930;2023-03-03T11:37:20;3.72;;;3.42;;
14098;SDS011;7126;48.458;7.930;2023-03-03T11:40:06;4.43;;;3.00;;
14098;SDS011;7126;48.458;7.930;2023-03-03T11:45:30;5.38;;;4.45;;
14098;SDS011;7126;48.458;7.930;2023-03-03T11:58:53;3.92;;;3.55;;
14098;SDS011;7126;48.458;7.930;2023-03-03T12:05:00;4.90;;;4.45;;
14098;SDS011;7126;48.458;7.930;2023-03-03T12:12:51;3.92;;;3.53;;
14098;SDS011;7126;48.458;7.930;2023-03-03T12:18:29;4.40;;;3.80;;
14098;SDS011;7126;48.458;7.930;2023-03-03T12:21:25;4.53;;;4.22;;
14098;SDS011;7126;48.458;7.930;2023-03-03T12:24:06;6.15;;;4.47;;
14098;SDS011;7126;48.458;7.930;2023-03-03T12:26:51;4.53;;;4.20;;
14098;SDS011;7126;48.458;7.930;2023-03-03T12:29:44;6.53;;;3.70;;
14098;SDS011;7126;48.458;7.930;2023-03-03T12:32:42;4.75;;;4.07;;
14098;SDS011;7126;48.458;7.930;2023-03-03T12:35:19;6.25;;;4.22;;
14098;SDS011;7126;48.458;7.930;2023-03-03T12:41:06;3.63;;;3.38;;
14098;SDS011;7126;48.458;7.930;2023-03-03T12:49:25;4.03;;;3.22;;
14098;SDS011;7126;48.458;7.930;2023-03-03T12:55:10;5.95;;;5.18;;
14098;SDS011;7126;48.458;7.930;2023-03-03T12:58:24;7.25;;;5.03;;
14098;SDS011;7126;48.458;7.930;2023-03-03T13:01:15;3.58;;;3.28;;
14098;SDS011;7126;48.458;7.930;2023-03-03T13:04:09;5.90;;;4.13;;
14098;SDS011;7126;48.458;7.930;2023-03-03T13:06:57;3.95;;;3.58;;
14098;SDS011;7126;48.458;7.930;2023-03-03T13:14:56;4.10;;;3.50;;
14098;SDS011;7126;48.458;7.930;2023-03-03T13:17:34;3.67;;;3.38;;
14098;SDS011;7126;48.458;7.930;2023-03-03T13:23:16;5.68;;;4.25;;
14098;SDS011;7126;48.458;7.930;2023-03-03T13:25:54;4.57;;;4.18;;
14098;SDS011;7126;48.458;7.930;2023-03-03T13:33:44;3.97;;;3.67;;
14098;SDS011;7126;48.458;7.930;2023-03-03T13:36:27;8.05;;;4.28;;
14098;SDS011;7126;48.458;7.930;2023-03-03T13:39:13;6.40;;;5.13;;
14098;SDS011;7126;48.458;7.930;2023-03-03T13:42:02;5.47;;;4.00;;
14098;SDS011;7126;48.458;7.930;2023-03-03T13:44:37;6.15;;;4.22;;
14098;SDS011;7126;48.458;7.930;2023-03-03T13:47:17;5.35;;;4.38;;
14098;SDS011;7126;48.458;7.930;2023-03-03T13:58:52;3.92;;;3.50;;
14098;SDS011;7126;48.458;7.930;2023-03-03T14:01:52;6.13;;;4.47;;
14098;SDS011;7126;48.458;7.930;2023-03-03T14:07:21;4.75;;;4.13;;
14098;SDS011;7126;48.458;7.930;2023-03-03T14:10:09;4.50;;;4.10;;
14098;SDS011;7126;48.458;7.930;2023-03-03T14:15:37;5.60;;;5.10;;
14098;SDS011;7126;48.458;7.930;2023-03-03T14:20:50;3.35;;;3.03;;
14098;SDS011;7126;48.458;7.930;2023-03-03T14:23:18;9.55;;;4.85;;
14098;SDS011;7126;48.458;7.930;2023-03-03T14:25:50;6.68;;;4.32;;
14098;SDS011;7126;48.458;7.930;2023-03-03T14:28:16;5.47;;;4.70;;
14098;SDS011;7126;48.458;7.930;2023-03-03T14:30:45;5.63;;;4.28;;
14098;SDS011;7126;48.458;7.930;2023-03-03T14:35:40;5.07;;;3.95;;
14098;SDS011;7126;48.458;7.930;2023-03-03T14:38:11;4.78;;;4.22;;
14098;SDS011;7126;48.458;7.930;2023-03-03T14:40:45;4.50;;;4.10;;
14098;SDS011;7126;48.458;7.930;2023-03-03T14:43:22;8.77;;;4.57;;
14098;SDS011;7126;48.458;7.930;2023-03-03T14:45:50;5.30;;;4.75;;
14098;SDS011;7126;48.458;7.930;2023-03-03T14:48:18;4.60;;;4.20;;
14098;SDS011;7126;48.458;7.930;2023-03-03T14:50:49;4.80;;;4.22;;
14098;SDS011;7126;48.458;7.930;2023-03-03T14:53:37;3.75;;;3.35;;
14098;SDS011;7126;48.458;7.930;2023-03-03T14:56:13;4.40;;;4.00;;
14098;SDS011;7126;48.458;7.930;2023-03-03T14:58:50;6.13;;;5.57;;
14098;SDS011;7126;48.458;7.930;2023-03-03T15:01:22;6.47;;;3.88;;
14098;SDS011;7126;48.458;7.930;2023-03-03T15:12:02;4.57;;;3.13;;
14098;SDS011;7126;48.458;7.930;2023-03-03T15:14:43;3.10;;;2.80;;
14098;SDS011;7126;48.458;7.930;2023-03-03T15:20:32;5.05;;;3.25;;
14098;SDS011;7126;48.458;7.930;2023-03-03T15:25:35;4.07;;;3.20;;
14098;SDS011;7126;48.458;7.930;2023-03-03T15:30:48;3.83;;;3.45;;
14098;SDS011;7126;48.458;7.930;2023-03-03T15:36:35;3.75;;;2.75;;
14098;SDS011;7126;48.458;7.930;2023-03-03T15:39:10;5.70;;;4.38;;
14098;SDS011;7126;48.458;7.930;2023-03-03T15:52:32;4.40;;;3.88;;
14098;SDS011;7126;48.458;7.930;2023-03-03T15:55:25;5.18;;;4.13;;
14098;SDS011;7126;48.458;7.930;2023-03-03T15:57:58;4.53;;;3.30;;
14098;SDS011;7126;48.458;7.930;2023-03-03T16:04:27;4.25;;;3.40;;
14098;SDS011;7126;48.458;7.930;2023-03-03T16:12:29;4.90;;;3.03;;
14098;SDS011;7126;48.458;7.930;2023-03-03T16:26:00;3.75;;;3.45;;
14098;SDS011;7126;48.458;7.930;2023-03-03T16:31:36;2.70;;;2.53;;
14098;SDS011;7126;48.458;7.930;2023-03-03T16:34:13;3.58;;;3.35;;
14098;SDS011;7126;48.458;7.930;2023-03-03T16:37:03;3.03;;;2.72;;
14098;SDS011;7126;48.458;7.930;2023-03-03T16:50:28;3.13;;;2.92;;
14098;SDS011;7126;48.458;7.930;2023-03-03T16:59:09;3.17;;;2.95;;
14098;SDS011;7126;48.458;7.930;2023-03-03T17:07:02;3.38;;;3.13;;
14098;SDS011;7126;48.458;7.930;2023-03-03T17:09:57;4.60;;;3.03;;
14098;SDS011;7126;48.458;7.930;2023-03-03T17:18:10;5.05;;;2.83;;
14098;SDS011;7126;48.458;7.930;2023-03-03T17:20:59;2.58;;;2.38;;
14098;SDS011;7126;48.458;7.930;2023-03-03T17:28:32;3.28;;;2.53;;
14098;SDS011;7126;48.458;7.930;2023-03-03T17:39:56;3.03;;;2.85;;
14098;SDS011;7126;48.458;7.930;2023-03-03T17:42:37;2.40;;;2.22;;
14098;SDS011;7126;48.458;7.930;2023-03-03T17:45:25;2.97;;;2.78;;
14098;SDS011;7126;48.458;7.930;2023-03-03T17:53:27;3.22;;;3.00;;
14098;SDS011;7126;48.458;7.930;2023-03-03T18:03:56;2.97;;;2.70;;
14098;SDS011;7126;48.458;7.930;2023-03-03T18:06:40;4.50;;;3.60;;
14098;SDS011;7126;48.458;7.930;2023-03-03T18:09:39;2.95;;;2.75;;
14098;SDS011;7126;48.458;7.930;2023-03-03T18:29:04;2.83;;;2.30;;
14098;SDS011;7126;48.458;7.930;2023-03-03T18:32:15;4.88;;;3.88;;
14098;SDS011;7126;48.458;7.930;2023-03-03T18:34:37;4.75;;;4.38;;
14098;SDS011;7126;48.458;7.930;2023-03-03T18:55:48;3.40;;;2.90;;
14098;SDS011;7126;48.458;7.930;2023-03-03T19:03:29;5.63;;;3.67;;
14098;SDS011;7126;48.458;7.930;2023-03-03T19:09:03;3.50;;;2.78;;
14098;SDS011;7126;48.458;7.930;2023-03-03T19:11:37;3.15;;;2.95;;
14098;SDS011;7126;48.458;7.930;2023-03-03T19:16:42;4.07;;;3.72;;
14098;SDS011;7126;48.458;7.930;2023-03-03T19:19:09;6.38;;;4.68;;
14098;SDS011;7126;48.458;7.930;2023-03-03T19:21:39;4.85;;;4.40;;
14098;SDS011;7126;48.458;7.930;2023-03-03T19:29:31;4.78;;;3.10;;
14098;SDS011;7126;48.458;7.930;2023-03-03T19:32:25;7.05;;;4.40;;
14098;SDS011;7126;48.458;7.930;2023-03-03T20:00:34;3.05;;;2.85;;
14098;SDS011;7126;48.458;7.930;2023-03-03T20:08:40;3.03;;;2.90;;
14098;SDS011;7126;48.458;7.930;2023-03-03T20:11:29;2.67;;;2.58;;
14098;SDS011;7126;48.458;7.930;2023-03-03T20:14:45;2.53;;;2.42;;
14098;SDS011;7126;48.458;7.930;2023-03-03T20:16:51;3.75;;;3.45;;
14098;SDS011;7126;48.458;7.930;2023-03-03T20:33:08;3.05;;;2.85;;
14098;SDS011;7126;48.458;7.930;2023-03-03T20:49:20;4.00;;;3.58;;
14098;SDS011;7126;48.458;7.930;2023-03-03T20:52:10;2.35;;;2.25;;
14098;SDS011;7126;48.458;7.930;2023-03-03T21:00:15;2.42;;;2.28;;
14098;SDS011;7126;48.458;7.930;2023-03-03T21:02:52;3.22;;;2.97;;
14098;SDS011;7126;48.458;7.930;2023-03-03T21:05:30;3.83;;;2.28;;
14098;SDS011;7126;48.458;7.930;2023-03-03T21:08:03;3.30;;;3.10;;
14098;SDS011;7126;48.458;7.930;2023-03-03T21:10:32;2.40;;;2.30;;
14098;SDS011;7126;48.458;7.930;2023-03-03T21:16:09;2.85;;;2.65;;
14098;SDS011;7126;48.458;7.930;2023-03-03T21:21:32;5.60;;;2.33;;
14098;SDS011;7126;48.458;7.930;2023-03-03T21:24:00;2.70;;;2.50;;
14098;SDS011;7126;48.458;7.930;2023-03-03T21:26:44;7.60;;;2.03;;
14098;SDS011;7126;48.458;7.930;2023-03-03T21:29:19;2.83;;;2.70;;
14098;SDS011;7126;48.458;7.930;2023-03-03T21:31:47;2.07;;;1.97;;
14098;SDS011;7126;48.458;7.930;2023-03-03T21:34:21;3.17;;;2.87;;
14098;SDS011;7126;48.458;7.930;2023-03-03T21:36:48;2.53;;;2.33;;
14098;SDS011;7126;48.458;7.930;2023-03-03T21:39:21;4.73;;;2.67;;
14098;SDS011;7126;48.458;7.930;2023-03-03T21:41:52;4.30;;;3.77;;
14098;SDS011;7126;48.458;7.930;2023-03-03T21:44:30;2.80;;;2.53;;
14098;SDS011;7126;48.458;7.930;2023-03-03T21:46:57;2.85;;;2.65;;
14098;SDS011;7126;48.458;7.930;2023-03-03T21:49:23;2.60;;;2.40;;
14098;SDS011;7126;48.458;7.930;2023-03-03T21:51:49;4.75;;;1.73;;
14098;SDS011;7126;48.458;7.930;2023-03-03T21:54:15;3.08;;;2.88;;
14098;SDS011;7126;48.458;7.930;2023-03-03T21:56:40;2.75;;;2.55;;
14098;SDS011;7126;48.458;7.930;2023-03-03T21:59:06;3.57;;;3.27;;
14098;SDS011;7126;48.458;7.930;2023-03-03T22:01:33;4.60;;;3.17;;
14098;SDS011;7126;48.458;7.930;2023-03-03T22:03:59;2.93;;;2.73;;
14098;SDS011;7126;48.458;7.930;2023-03-03T22:06:24;3.53;;;2.85;;
14098;SDS011;7126;48.458;7.930;2023-03-03T22:08:50;3.13;;;2.83;;
14098;SDS011;7126;48.458;7.930;2023-03-03T22:11:15;2.33;;;2.22;;
14098;SDS011;7126;48.458;7.930;2023-03-03T22:13:41;3.20;;;2.92;;
14098;SDS011;7126;48.458;7.930;2023-03-03T22:16:07;7.03;;;2.77;;
14098;SDS011;7126;48.458;7.930;2023-03-03T22:18:32;4.20;;;2.40;;